sensor_id;sensor_type;location;lat;lon;timestamp;pressure;altitude;pressure_sealevel;temperature;humidity
35419;BME280;21525;41.240;16.500;2023-04-23T00:00:14;101264.34;;;23.08;43.48
35419;BME280;21525;41.240;16.500;2023-04-23T00:02:43;101261.13;;;22.54;44.79
35419;BME280;21525;41.240;16.500;2023-04-23T00:05:11;101265.13;;;21.95;46.30
35419;BME280;21525;41.240;16.500;2023-04-23T00:07:38;101261.88;;;21.73;47.24
35419;BME280;21525;41.240;16.500;2023-04-23T00:10:04;101263.09;;;21.66;47.77
35419;BME280;21525;41.240;16.500;2023-04-23T00:12:32;101265.91;;;21.97;47.55
35419;BME280;21525;41.240;16.500;2023-04-23T00:14:59;101257.88;;;21.99;47.69
35419;BME280;21525;41.240;16.500;2023-04-23T00:17:25;101259.75;;;21.79;47.92
35419;BME280;21525;41.240;16.500;2023-04-23T00:19:51;101264.25;;;21.77;48.29
35419;BME280;21525;41.240;16.500;2023-04-23T00:22:16;101253.91;;;21.38;48.55
35419;BME280;21525;41.240;16.500;2023-04-23T00:24:44;101249.06;;;21.98;47.49
35419;BME280;21525;41.240;16.500;2023-04-23T00:27:10;101254.97;;;22.21;46.94
35419;BME280;21525;41.240;16.500;2023-04-23T00:29:36;101244.22;;;22.24;46.71
35419;BME280;21525;41.240;16.500;2023-04-23T00:32:02;101248.06;;;22.18;46.62
35419;BME280;21525;41.240;16.500;2023-04-23T00:34:27;101239.47;;;22.46;46.24
35419;BME280;21525;41.240;16.500;2023-04-23T00:36:53;101242.00;;;22.65;45.98
35419;BME280;21525;41.240;16.500;2023-04-23T00:39:19;101249.41;;;22.58;45.84
35419;BME280;21525;41.240;16.500;2023-04-23T00:41:45;101245.34;;;22.68;45.87
35419;BME280;21525;41.240;16.500;2023-04-23T00:44:11;101242.06;;;22.63;45.70
35419;BME280;21525;41.240;16.500;2023-04-23T00:46:37;101244.16;;;22.74;45.50
35419;BME280;21525;41.240;16.500;2023-04-23T00:49:03;101243.28;;;22.73;45.25
35419;BME280;21525;41.240;16.500;2023-04-23T00:51:29;101236.72;;;22.81;45.47
35419;BME280;21525;41.240;16.500;2023-04-23T00:53:56;101237.88;;;22.75;45.58
35419;BME280;21525;41.240;16.500;2023-04-23T00:56:23;101237.00;;;22.74;45.57
35419;BME280;21525;41.240;16.500;2023-04-23T00:58:51;101236.03;;;22.28;46.66
35419;BME280;21525;41.240;16.500;2023-04-23T01:01:19;101231.88;;;22.56;46.06
35419;BME280;21525;41.240;16.500;2023-04-23T01:03:47;101224.19;;;22.67;46.00
35419;BME280;21525;41.240;16.500;2023-04-23T01:06:15;101230.66;;;22.45;46.10
35419;BME280;21525;41.240;16.500;2023-04-23T01:08:44;101230.66;;;22.30;46.57
35419;BME280;21525;41.240;16.500;2023-04-23T01:11:14;101232.59;;;22.26;46.88
35419;BME280;21525;41.240;16.500;2023-04-23T01:13:41;101225.63;;;22.41;46.63
35419;BME280;21525;41.240;16.500;2023-04-23T01:16:08;101228.94;;;22.29;46.77
35419;BME280;21525;41.240;16.500;2023-04-23T01:18:35;101226.44;;;22.26;46.54
35419;BME280;21525;41.240;16.500;2023-04-23T01:21:03;101228.84;;;22.30;46.57
35419;BME280;21525;41.240;16.500;2023-04-23T01:23:31;101224.25;;;22.34;46.51
35419;BME280;21525;41.240;16.500;2023-04-23T01:25:57;101228.09;;;22.11;47.08
35419;BME280;21525;41.240;16.500;2023-04-23T01:28:23;101229.91;;;21.93;47.73
35419;BME280;21525;41.240;16.500;2023-04-23T01:30:49;101228.09;;;22.11;47.43
35419;BME280;21525;41.240;16.500;2023-04-23T01:33:16;101233.78;;;22.21;47.06
35419;BME280;21525;41.240;16.500;2023-04-23T01:35:44;101224.53;;;22.12;47.37
35419;BME280;21525;41.240;16.500;2023-04-23T01:38:10;101233.53;;;22.25;47.63
35419;BME280;21525;41.240;16.500;2023-04-23T01:40:38;101227.38;;;22.09;47.91
35419;BME280;21525;41.240;16.500;2023-04-23T01:43:07;101218.06;;;22.00;47.88
35419;BME280;21525;41.240;16.500;2023-04-23T01:45:33;101223.94;;;21.72;48.70
35419;BME280;21525;41.240;16.500;2023-04-23T01:47:59;101221.81;;;21.96;48.14
35419;BME280;21525;41.240;16.500;2023-04-23T01:50:25;101222.19;;;21.89;48.35
35419;BME280;21525;41.240;16.500;2023-04-23T01:52:52;101222.13;;;21.90;48.53
35419;BME280;21525;41.240;16.500;2023-04-23T01:55:18;101218.25;;;21.63;49.04
35419;BME280;21525;41.240;16.500;2023-04-23T01:57:48;101213.81;;;21.63;49.44
35419;BME280;21525;41.240;16.500;2023-04-23T02:00:14;101227.69;;;21.68;48.85
35419;BME280;21525;41.240;16.500;2023-04-23T02:02:41;101223.25;;;21.69;49.02
35419;BME280;21525;41.240;16.500;2023-04-23T02:05:15;101235.22;;;21.59;49.25
35419;BME280;21525;41.240;16.500;2023-04-23T02:07:44;101227.59;;;21.53;49.15
35419;BME280;21525;41.240;16.500;2023-04-23T02:10:10;101230.47;;;21.48;49.76
35419;BME280;21525;41.240;16.500;2023-04-23T02:12:36;101232.19;;;21.32;49.33
35419;BME280;21525;41.240;16.500;2023-04-23T02:15:03;101233.38;;;21.61;48.99
35419;BME280;21525;41.240;16.500;2023-04-23T02:17:32;101233.69;;;21.72;48.63
35419;BME280;21525;41.240;16.500;2023-04-23T02:19:58;101230.25;;;21.70;48.64
35419;BME280;21525;41.240;16.500;2023-04-23T02:22:24;101230.88;;;21.75;48.30
35419;BME280;21525;41.240;16.500;2023-04-23T02:24:51;101231.75;;;21.75;47.98
35419;BME280;21525;41.240;16.500;2023-04-23T02:27:17;101229.69;;;21.98;47.71
35419;BME280;21525;41.240;16.500;2023-04-23T02:29:44;101235.69;;;21.84;47.51
35419;BME280;21525;41.240;16.500;2023-04-23T02:32:10;101229.94;;;21.76;47.59
35419;BME280;21525;41.240;16.500;2023-04-23T02:34:36;101232.03;;;21.87;47.79
35419;BME280;21525;41.240;16.500;2023-04-23T02:37:02;101223.53;;;21.97;47.33
35419;BME280;21525;41.240;16.500;2023-04-23T02:39:30;101228.75;;;21.82;47.51
35419;BME280;21525;41.240;16.500;2023-04-23T02:41:56;101222.44;;;21.84;47.54
35419;BME280;21525;41.240;16.500;2023-04-23T02:44:26;101216.22;;;21.85;47.69
35419;BME280;21525;41.240;16.500;2023-04-23T02:46:51;101222.47;;;21.67;48.13
35419;BME280;21525;41.240;16.500;2023-04-23T02:49:17;101214.53;;;21.67;47.96
35419;BME280;21525;41.240;16.500;2023-04-23T02:51:45;101219.91;;;21.65;47.99
35419;BME280;21525;41.240;16.500;2023-04-23T02:54:12;101216.84;;;21.56;48.29
35419;BME280;21525;41.240;16.500;2023-04-23T02:56:37;101204.75;;;21.85;48.23
35419;BME280;21525;41.240;16.500;2023-04-23T02:59:05;101208.91;;;21.56;48.21
35419;BME280;21525;41.240;16.500;2023-04-23T03:01:31;101209.34;;;21.81;47.82
35419;BME280;21525;41.240;16.500;2023-04-23T03:03:58;101210.16;;;21.66;47.75
35419;BME280;21525;41.240;16.500;2023-04-23T03:06:24;101207.22;;;21.37;48.75
35419;BME280;21525;41.240;16.500;2023-04-23T03:08:50;101206.88;;;21.61;48.06
35419;BME280;21525;41.240;16.500;2023-04-23T03:11:15;101205.56;;;21.52;47.97
35419;BME280;21525;41.240;16.500;2023-04-23T03:13:41;101210.78;;;21.54;47.74
35419;BME280;21525;41.240;16.500;2023-04-23T03:16:07;101206.41;;;21.53;47.84
35419;BME280;21525;41.240;16.500;2023-04-23T03:20:58;101208.84;;;21.40;48.17
35419;BME280;21525;41.240;16.500;2023-04-23T03:23:24;101208.78;;;21.41;48.07
35419;BME280;21525;41.240;16.500;2023-04-23T03:25:50;101208.28;;;21.33;48.34
35419;BME280;21525;41.240;16.500;2023-04-23T03:28:16;101200.66;;;21.27;48.03
35419;BME280;21525;41.240;16.500;2023-04-23T03:30:43;101196.47;;;21.40;47.81
35419;BME280;21525;41.240;16.500;2023-04-23T03:33:09;101198.66;;;21.32;47.87
35419;BME280;21525;41.240;16.500;2023-04-23T03:35:34;101191.63;;;21.49;47.74
35419;BME280;21525;41.240;16.500;2023-04-23T03:38:03;101199.22;;;21.20;48.33
35419;BME280;21525;41.240;16.500;2023-04-23T03:40:29;101199.22;;;21.20;48.69
35419;BME280;21525;41.240;16.500;2023-04-23T03:42:58;101199.72;;;21.28;48.35
35419;BME280;21525;41.240;16.500;2023-04-23T03:45:44;101206.66;;;21.31;48.63
35419;BME280;21525;41.240;16.500;2023-04-23T03:48:10;101199.97;;;21.05;48.98
35419;BME280;21525;41.240;16.500;2023-04-23T03:50:36;101204.31;;;21.25;48.52
35419;BME280;21525;41.240;16.500;2023-04-23T03:53:14;101203.72;;;21.37;48.66
35419;BME280;21525;41.240;16.500;2023-04-23T03:56:02;101198.22;;;21.23;49.02
35419;BME280;21525;41.240;16.500;2023-04-23T03:58:31;101202.63;;;21.41;48.81
35419;BME280;21525;41.240;16.500;2023-04-23T04:00:57;101203.41;;;21.43;48.68
35419;BME280;21525;41.240;16.500;2023-04-23T04:03:22;101202.38;;;21.45;48.71
35419;BME280;21525;41.240;16.500;2023-04-23T04:05:48;101206.66;;;21.12;49.24
35419;BME280;21525;41.240;16.500;2023-04-23T04:08:14;101208.94;;;21.20;48.94
35419;BME280;21525;41.240;16.500;2023-04-23T04:10:39;101219.09;;;21.29;49.32
35419;BME280;21525;41.240;16.500;2023-04-23T04:13:05;101213.22;;;21.41;49.06
35419;BME280;21525;41.240;16.500;2023-04-23T04:15:31;101204.41;;;21.40;49.03
35419;BME280;21525;41.240;16.500;2023-04-23T04:17:57;101207.84;;;20.88;49.84
35419;BME280;21525;41.240;16.500;2023-04-23T04:20:26;101214.28;;;21.01;50.54
35419;BME280;21525;41.240;16.500;2023-04-23T04:22:54;101202.28;;;21.47;49.46
35419;BME280;21525;41.240;16.500;2023-04-23T04:25:20;101209.06;;;21.70;48.90
35419;BME280;21525;41.240;16.500;2023-04-23T04:27:47;101205.00;;;21.80;47.95
35419;BME280;21525;41.240;16.500;2023-04-23T04:30:13;101209.84;;;22.06;47.55
35419;BME280;21525;41.240;16.500;2023-04-23T04:32:40;101206.28;;;23.18;44.78
35419;BME280;21525;41.240;16.500;2023-04-23T04:35:07;101206.34;;;24.90;41.82
35419;BME280;21525;41.240;16.500;2023-04-23T04:37:34;101200.53;;;25.76;40.21
35419;BME280;21525;41.240;16.500;2023-04-23T04:40:00;101204.69;;;26.44;38.74
35419;BME280;21525;41.240;16.500;2023-04-23T04:42:28;101191.72;;;27.35;37.59
35419;BME280;21525;41.240;16.500;2023-04-23T04:44:54;101199.56;;;28.40;35.69
35419;BME280;21525;41.240;16.500;2023-04-23T04:47:22;101203.91;;;27.85;35.91
35419;BME280;21525;41.240;16.500;2023-04-23T04:49:48;101204.81;;;29.28;33.83
35419;BME280;21525;41.240;16.500;2023-04-23T04:52:14;101213.53;;;29.20;33.91
35419;BME280;21525;41.240;16.500;2023-04-23T04:54:39;101210.56;;;29.76;33.09
35419;BME280;21525;41.240;16.500;2023-04-23T04:57:06;101209.53;;;29.67;32.55
35419;BME280;21525;41.240;16.500;2023-04-23T04:59:31;101208.88;;;29.75;32.38
35419;BME280;21525;41.240;16.500;2023-04-23T05:01:57;101210.03;;;29.82;32.47
35419;BME280;21525;41.240;16.500;2023-04-23T05:04:24;101203.16;;;31.10;31.04
35419;BME280;21525;41.240;16.500;2023-04-23T05:06:49;101205.09;;;30.79;31.46
35419;BME280;21525;41.240;16.500;2023-04-23T05:09:15;101203.19;;;32.04;30.35
35419;BME280;21525;41.240;16.500;2023-04-23T05:11:41;101206.81;;;31.57;30.17
35419;BME280;21525;41.240;16.500;2023-04-23T05:14:07;101217.84;;;32.20;29.79
35419;BME280;21525;41.240;16.500;2023-04-23T05:16:33;101210.34;;;32.51;29.50
35419;BME280;21525;41.240;16.500;2023-04-23T05:18:59;101215.38;;;32.46;29.25
35419;BME280;21525;41.240;16.500;2023-04-23T05:21:25;101216.22;;;32.46;29.19
35419;BME280;21525;41.240;16.500;2023-04-23T05:23:53;101215.97;;;32.39;29.34
35419;BME280;21525;41.240;16.500;2023-04-23T05:26:19;101228.22;;;29.26;32.70
35419;BME280;21525;41.240;16.500;2023-04-23T05:28:45;101233.78;;;27.79;35.31
35419;BME280;21525;41.240;16.500;2023-04-23T05:31:11;101225.78;;;28.01;35.05
35419;BME280;21525;41.240;16.500;2023-04-23T05:33:37;101226.63;;;30.18;32.62
35419;BME280;21525;41.240;16.500;2023-04-23T05:36:03;101225.22;;;31.71;29.96
35419;BME280;21525;41.240;16.500;2023-04-23T05:38:29;101224.38;;;32.54;29.81
35419;BME280;21525;41.240;16.500;2023-04-23T05:40:54;101221.94;;;33.24;29.26
35419;BME280;21525;41.240;16.500;2023-04-23T05:43:20;101208.94;;;34.07;28.00
35419;BME280;21525;41.240;16.500;2023-04-23T05:45:46;101211.03;;;33.69;28.46
35419;BME280;21525;41.240;16.500;2023-04-23T05:48:12;101219.63;;;32.93;29.22
35419;BME280;21525;41.240;16.500;2023-04-23T05:50:37;101214.19;;;31.26;31.01
35419;BME280;21525;41.240;16.500;2023-04-23T05:53:03;101221.53;;;30.85;31.73
35419;BME280;21525;41.240;16.500;2023-04-23T05:55:29;101214.59;;;31.60;31.16
35419;BME280;21525;41.240;16.500;2023-04-23T05:57:55;101205.00;;;32.96;30.00
35419;BME280;21525;41.240;16.500;2023-04-23T06:00:21;101212.25;;;35.35;27.46
35419;BME280;21525;41.240;16.500;2023-04-23T06:02:46;101202.25;;;35.52;27.23
35419;BME280;21525;41.240;16.500;2023-04-23T06:05:12;101208.16;;;35.55;27.04
35419;BME280;21525;41.240;16.500;2023-04-23T06:07:38;101210.22;;;35.37;27.33
35419;BME280;21525;41.240;16.500;2023-04-23T06:10:05;101211.34;;;35.91;26.75
35419;BME280;21525;41.240;16.500;2023-04-23T06:12:31;101210.84;;;35.80;27.19
35419;BME280;21525;41.240;16.500;2023-04-23T06:14:57;101211.84;;;35.95;26.81
35419;BME280;21525;41.240;16.500;2023-04-23T06:17:22;101209.16;;;35.46;27.40
35419;BME280;21525;41.240;16.500;2023-04-23T06:19:48;101215.16;;;36.29;26.60
35419;BME280;21525;41.240;16.500;2023-04-23T06:22:14;101206.50;;;35.38;27.00
35419;BME280;21525;41.240;16.500;2023-04-23T06:24:39;101208.81;;;34.42;28.27
35419;BME280;21525;41.240;16.500;2023-04-23T06:27:05;101221.34;;;34.59;28.54
35419;BME280;21525;41.240;16.500;2023-04-23T06:29:35;101215.81;;;33.75;29.05
35419;BME280;21525;41.240;16.500;2023-04-23T06:32:03;101216.75;;;32.50;31.21
35419;BME280;21525;41.240;16.500;2023-04-23T06:34:29;101224.19;;;31.91;31.87
35419;BME280;21525;41.240;16.500;2023-04-23T06:36:55;101226.28;;;30.72;33.45
35419;BME280;21525;41.240;16.500;2023-04-23T06:39:21;101235.81;;;30.15;34.05
35419;BME280;21525;41.240;16.500;2023-04-23T06:41:46;101239.22;;;30.57;33.09
35419;BME280;21525;41.240;16.500;2023-04-23T06:44:20;101230.47;;;30.25;32.84
35419;BME280;21525;41.240;16.500;2023-04-23T06:46:51;101235.44;;;30.29;32.51
35419;BME280;21525;41.240;16.500;2023-04-23T06:49:17;101225.00;;;30.36;32.68
35419;BME280;21525;41.240;16.500;2023-04-23T06:51:43;101235.50;;;30.89;32.46
35419;BME280;21525;41.240;16.500;2023-04-23T06:54:09;101227.78;;;31.24;31.89
35419;BME280;21525;41.240;16.500;2023-04-23T06:56:34;101234.19;;;30.73;33.33
35419;BME280;21525;41.240;16.500;2023-04-23T06:59:00;101236.06;;;30.92;33.00
35419;BME280;21525;41.240;16.500;2023-04-23T07:01:26;101231.88;;;31.28;32.88
35419;BME280;21525;41.240;16.500;2023-04-23T07:03:52;101239.31;;;30.77;33.00
35419;BME280;21525;41.240;16.500;2023-04-23T07:06:19;101239.34;;;31.05;33.24
35419;BME280;21525;41.240;16.500;2023-04-23T07:08:45;101236.81;;;31.23;32.83
35419;BME280;21525;41.240;16.500;2023-04-23T07:11:10;101236.38;;;29.98;33.93
35419;BME280;21525;41.240;16.500;2023-04-23T07:13:37;101234.13;;;30.24;33.89
35419;BME280;21525;41.240;16.500;2023-04-23T07:16:03;101232.13;;;29.95;34.33
35419;BME280;21525;41.240;16.500;2023-04-23T07:18:28;101232.53;;;29.70;35.61
35419;BME280;21525;41.240;16.500;2023-04-23T07:20:54;101228.28;;;29.67;35.35
35419;BME280;21525;41.240;16.500;2023-04-23T07:23:20;101225.72;;;30.88;33.09
35419;BME280;21525;41.240;16.500;2023-04-23T07:25:46;101232.31;;;31.14;32.98
35419;BME280;21525;41.240;16.500;2023-04-23T07:28:12;101229.03;;;30.51;33.77
35419;BME280;21525;41.240;16.500;2023-04-23T07:30:38;101231.94;;;29.66;34.71
35419;BME280;21525;41.240;16.500;2023-04-23T07:33:04;101229.13;;;29.68;34.66
35419;BME280;21525;41.240;16.500;2023-04-23T07:35:30;101225.78;;;30.48;33.96
35419;BME280;21525;41.240;16.500;2023-04-23T07:37:56;101230.53;;;30.74;33.17
35419;BME280;21525;41.240;16.500;2023-04-23T07:40:23;101237.81;;;28.96;35.51
35419;BME280;21525;41.240;16.500;2023-04-23T07:42:50;101244.19;;;28.62;36.89
35419;BME280;21525;41.240;16.500;2023-04-23T07:45:16;101241.28;;;28.87;36.47
35419;BME280;21525;41.240;16.500;2023-04-23T07:47:42;101247.38;;;28.45;36.88
35419;BME280;21525;41.240;16.500;2023-04-23T07:50:08;101243.09;;;28.42;36.89
35419;BME280;21525;41.240;16.500;2023-04-23T07:52:34;101241.16;;;28.89;36.58
35419;BME280;21525;41.240;16.500;2023-04-23T07:55:01;101245.53;;;28.34;37.24
35419;BME280;21525;41.240;16.500;2023-04-23T07:57:27;101251.72;;;28.90;37.25
35419;BME280;21525;41.240;16.500;2023-04-23T07:59:53;101247.47;;;28.65;37.42
35419;BME280;21525;41.240;16.500;2023-04-23T08:02:19;101253.22;;;29.15;36.82
35419;BME280;21525;41.240;16.500;2023-04-23T08:04:48;101251.06;;;28.98;37.40
35419;BME280;21525;41.240;16.500;2023-04-23T08:07:14;101244.28;;;28.60;38.32
35419;BME280;21525;41.240;16.500;2023-04-23T08:09:39;101249.19;;;29.21;38.02
35419;BME280;21525;41.240;16.500;2023-04-23T08:12:05;101252.94;;;28.64;38.62
35419;BME280;21525;41.240;16.500;2023-04-23T08:14:31;101257.91;;;29.34;38.06
35419;BME280;21525;41.240;16.500;2023-04-23T08:16:57;101251.50;;;29.78;37.78
35419;BME280;21525;41.240;16.500;2023-04-23T08:19:23;101253.25;;;29.68;37.47
35419;BME280;21525;41.240;16.500;2023-04-23T08:21:50;101247.97;;;29.78;37.41
35419;BME280;21525;41.240;16.500;2023-04-23T08:24:16;101252.13;;;30.33;37.50
35419;BME280;21525;41.240;16.500;2023-04-23T08:26:42;101257.25;;;30.76;36.80
35419;BME280;21525;41.240;16.500;2023-04-23T08:29:08;101249.16;;;31.35;36.27
35419;BME280;21525;41.240;16.500;2023-04-23T08:31:34;101248.75;;;30.10;37.65
35419;BME280;21525;41.240;16.500;2023-04-23T08:34:00;101246.28;;;30.18;37.80
35419;BME280;21525;41.240;16.500;2023-04-23T08:36:26;101245.75;;;31.14;37.19
35419;BME280;21525;41.240;16.500;2023-04-23T08:38:52;101252.78;;;29.42;38.64
35419;BME280;21525;41.240;16.500;2023-04-23T08:41:17;101252.34;;;30.20;39.06
35419;BME280;21525;41.240;16.500;2023-04-23T08:46:35;101254.00;;;28.95;39.68
35419;BME280;21525;41.240;16.500;2023-04-23T08:49:03;101249.63;;;30.11;38.74
35419;BME280;21525;41.240;16.500;2023-04-23T08:51:35;101248.63;;;29.70;38.59
35419;BME280;21525;41.240;16.500;2023-04-23T08:54:03;101252.69;;;28.67;42.87
35419;BME280;21525;41.240;16.500;2023-04-23T08:56:31;101256.34;;;28.66;42.56
35419;BME280;21525;41.240;16.500;2023-04-23T08:58:57;101259.91;;;28.22;44.74
35419;BME280;21525;41.240;16.500;2023-04-23T09:01:23;101263.13;;;28.92;43.54
35419;BME280;21525;41.240;16.500;2023-04-23T09:03:49;101259.13;;;28.64;43.43
35419;BME280;21525;41.240;16.500;2023-04-23T09:06:15;101252.72;;;27.76;45.08
35419;BME280;21525;41.240;16.500;2023-04-23T09:08:41;101259.88;;;27.17;47.69
35419;BME280;21525;41.240;16.500;2023-04-23T09:11:08;101266.16;;;27.39;47.08
35419;BME280;21525;41.240;16.500;2023-04-23T09:13:34;101256.47;;;28.75;43.86
35419;BME280;21525;41.240;16.500;2023-04-23T09:16:01;101258.38;;;28.06;44.85
35419;BME280;21525;41.240;16.500;2023-04-23T09:18:26;101246.66;;;30.14;41.34
35419;BME280;21525;41.240;16.500;2023-04-23T09:20:52;101254.75;;;28.74;41.67
35419;BME280;21525;41.240;16.500;2023-04-23T09:23:20;101253.47;;;28.24;41.95
35419;BME280;21525;41.240;16.500;2023-04-23T09:25:46;101255.88;;;29.58;40.58
35419;BME280;21525;41.240;16.500;2023-04-23T09:28:12;101239.69;;;29.81;39.23
35419;BME280;21525;41.240;16.500;2023-04-23T09:30:43;101244.44;;;29.77;37.94
35419;BME280;21525;41.240;16.500;2023-04-23T09:33:10;101251.84;;;28.89;40.88
35419;BME280;21525;41.240;16.500;2023-04-23T09:35:38;101243.03;;;29.09;40.10
35419;BME280;21525;41.240;16.500;2023-04-23T09:40:23;101249.03;;;28.79;40.73
35419;BME280;21525;41.240;16.500;2023-04-23T09:42:50;101246.13;;;27.69;42.99
35419;BME280;21525;41.240;16.500;2023-04-23T09:45:21;101249.63;;;28.94;43.19
35419;BME280;21525;41.240;16.500;2023-04-23T09:47:50;101241.44;;;30.12;41.87
35419;BME280;21525;41.240;16.500;2023-04-23T09:50:17;101240.91;;;29.77;40.70
35419;BME280;21525;41.240;16.500;2023-04-23T09:52:43;101242.59;;;29.57;40.24
35419;BME280;21525;41.240;16.500;2023-04-23T09:55:09;101242.91;;;28.99;38.61
35419;BME280;21525;41.240;16.500;2023-04-23T09:57:40;101236.47;;;29.66;35.91
35419;BME280;21525;41.240;16.500;2023-04-23T10:00:13;101234.22;;;29.92;34.89
35419;BME280;21525;41.240;16.500;2023-04-23T10:02:47;101240.78;;;28.60;35.17
35419;BME280;21525;41.240;16.500;2023-04-23T10:05:18;101234.81;;;28.12;35.99
35419;BME280;21525;41.240;16.500;2023-04-23T10:07:44;101226.66;;;28.69;35.32
35419;BME280;21525;41.240;16.500;2023-04-23T10:10:14;101236.63;;;28.89;35.54
35419;BME280;21525;41.240;16.500;2023-04-23T10:12:42;101222.06;;;30.08;34.03
35419;BME280;21525;41.240;16.500;2023-04-23T10:15:09;101228.03;;;30.22;34.50
35419;BME280;21525;41.240;16.500;2023-04-23T10:17:36;101233.16;;;28.22;34.65
35419;BME280;21525;41.240;16.500;2023-04-23T10:20:03;101241.19;;;29.53;34.38
35419;BME280;21525;41.240;16.500;2023-04-23T10:22:30;101229.44;;;29.95;34.62
35419;BME280;21525;41.240;16.500;2023-04-23T10:24:56;101224.88;;;30.07;34.16
35419;BME280;21525;41.240;16.500;2023-04-23T13:49:49;101141.03;;;24.71;67.83
35419;BME280;21525;41.240;16.500;2023-04-23T13:52:15;101138.22;;;24.60;66.79
35419;BME280;21525;41.240;16.500;2023-04-23T13:54:41;101144.69;;;24.56;64.94
35419;BME280;21525;41.240;16.500;2023-04-23T13:57:07;101133.00;;;24.03;68.29
35419;BME280;21525;41.240;16.500;2023-04-23T13:59:34;101133.44;;;23.82;67.14
35419;BME280;21525;41.240;16.500;2023-04-23T14:01:59;101136.38;;;24.05;67.31
35419;BME280;21525;41.240;16.500;2023-04-23T14:04:25;101138.16;;;24.74;63.54
35419;BME280;21525;41.240;16.500;2023-04-23T14:06:51;101113.50;;;25.64;60.03
35419;BME280;21525;41.240;16.500;2023-04-23T14:09:17;101131.56;;;23.98;68.23
35419;BME280;21525;41.240;16.500;2023-04-23T14:11:43;101126.84;;;24.58;63.72
35419;BME280;21525;41.240;16.500;2023-04-23T14:14:09;101121.78;;;25.07;62.80
35419;BME280;21525;41.240;16.500;2023-04-23T14:16:35;101118.25;;;25.34;60.84
35419;BME280;21525;41.240;16.500;2023-04-23T14:19:00;101124.72;;;25.30;61.54
35419;BME280;21525;41.240;16.500;2023-04-23T14:21:26;101120.72;;;25.75;60.03
35419;BME280;21525;41.240;16.500;2023-04-23T14:24:01;101119.81;;;26.00;56.37
35419;BME280;21525;41.240;16.500;2023-04-23T14:26:33;101120.66;;;25.24;57.96
35419;BME280;21525;41.240;16.500;2023-04-23T14:29:09;101122.63;;;24.68;59.83
35419;BME280;21525;41.240;16.500;2023-04-23T14:31:36;101134.69;;;24.87;59.67
35419;BME280;21525;41.240;16.500;2023-04-23T14:34:04;101142.09;;;24.28;61.81
35419;BME280;21525;41.240;16.500;2023-04-23T14:36:30;101131.88;;;24.75;60.53
35419;BME280;21525;41.240;16.500;2023-04-23T14:38:56;101139.63;;;24.66;61.84
35419;BME280;21525;41.240;16.500;2023-04-23T14:41:23;101136.38;;;24.20;64.21
35419;BME280;21525;41.240;16.500;2023-04-23T14:43:49;101135.53;;;23.76;66.02
35419;BME280;21525;41.240;16.500;2023-04-23T14:46:14;101143.59;;;23.89;65.60
35419;BME280;21525;41.240;16.500;2023-04-23T14:48:40;101145.69;;;24.12;64.75
35419;BME280;21525;41.240;16.500;2023-04-23T14:51:06;101135.63;;;23.75;64.04
35419;BME280;21525;41.240;16.500;2023-04-23T14:53:32;101146.53;;;23.85;65.32
35419;BME280;21525;41.240;16.500;2023-04-23T14:55:58;101144.16;;;24.23;64.22
35419;BME280;21525;41.240;16.500;2023-04-23T14:58:23;101134.88;;;23.87;64.34
35419;BME280;21525;41.240;16.500;2023-04-23T15:00:49;101136.47;;;23.75;65.63
35419;BME280;21525;41.240;16.500;2023-04-23T15:03:15;101132.69;;;24.90;60.24
35419;BME280;21525;41.240;16.500;2023-04-23T15:05:41;101143.72;;;24.30;61.00
35419;BME280;21525;41.240;16.500;2023-04-23T15:08:07;101138.81;;;24.51;58.66
35419;BME280;21525;41.240;16.500;2023-04-23T15:10:33;101149.84;;;25.26;56.78
35419;BME280;21525;41.240;16.500;2023-04-23T15:13:06;101143.59;;;24.73;58.25
35419;BME280;21525;41.240;16.500;2023-04-23T15:15:47;101138.59;;;24.68;58.64
35419;BME280;21525;41.240;16.500;2023-04-23T15:18:14;101140.22;;;24.57;58.92
35419;BME280;21525;41.240;16.500;2023-04-23T15:20:40;101140.22;;;24.98;57.72
35419;BME280;21525;41.240;16.500;2023-04-23T15:23:08;101135.22;;;25.71;56.81
35419;BME280;21525;41.240;16.500;2023-04-23T15:25:34;101130.84;;;25.70;55.63
35419;BME280;21525;41.240;16.500;2023-04-23T15:28:00;101132.31;;;24.96;59.10
35419;BME280;21525;41.240;16.500;2023-04-23T15:30:27;101127.94;;;25.48;58.82
35419;BME280;21525;41.240;16.500;2023-04-23T15:32:53;101125.09;;;24.98;59.11
35419;BME280;21525;41.240;16.500;2023-04-23T15:35:23;101128.34;;;25.29;59.35
35419;BME280;21525;41.240;16.500;2023-04-23T15:37:49;101135.00;;;24.55;64.17
35419;BME280;21525;41.240;16.500;2023-04-23T15:40:15;101133.97;;;24.43;65.02
35419;BME280;21525;41.240;16.500;2023-04-23T15:42:41;101132.84;;;24.74;64.52
35419;BME280;21525;41.240;16.500;2023-04-23T15:45:09;101127.75;;;24.98;64.20
35419;BME280;21525;41.240;16.500;2023-04-23T15:47:35;101127.72;;;24.71;65.57
35419;BME280;21525;41.240;16.500;2023-04-23T15:50:05;101126.63;;;25.40;62.84
35419;BME280;21525;41.240;16.500;2023-04-23T15:52:31;101126.06;;;26.37;58.29
35419;BME280;21525;41.240;16.500;2023-04-23T15:54:59;101131.88;;;25.29;61.45
35419;BME280;21525;41.240;16.500;2023-04-23T15:57:25;101128.41;;;25.15;62.63
35419;BME280;21525;41.240;16.500;2023-04-23T15:59:51;101131.19;;;25.13;63.82
35419;BME280;21525;41.240;16.500;2023-04-23T16:02:17;101127.03;;;25.09;63.54
35419;BME280;21525;41.240;16.500;2023-04-23T16:04:43;101132.63;;;25.31;62.06
35419;BME280;21525;41.240;16.500;2023-04-23T16:07:10;101129.69;;;25.09;62.48